Time;durP1;ratioP1;P1;durP2;ratioP2;P2;SDS_P1;SDS_P2;PMS_P1;PMS_P2;Temp;Humidity;BMP_temperature;BMP_pressure;BME280_temperature;BME280_humidity;BME280_pressure;Samples;Min_cycle;Max_cycle;Signal;HPM_P1;HPM_P2
2020/12/09 00:00:28;;;;;;;60.13;26.40;;;;;;;0.04;100.00;100221.44;4933820;29;20572;-73
2020/12/09 00:02:55;;;;;;;69.07;27.53;;;;;;;0.06;100.00;100219.72;4938949;29;20214;-74
2020/12/09 00:05:21;;;;;;;61.60;26.77;;;;;;;0.09;100.00;100224.88;4932747;29;20204;-74
2020/12/09 00:07:47;;;;;;;63.33;26.53;;;;;;;0.11;100.00;100218.94;4937826;29;20203;-74
2020/12/09 00:10:13;;;;;;;66.10;27.33;;;;;;;0.12;100.00;100212.97;4933938;29;20200;-74
2020/12/09 00:12:39;;;;;;;60.67;26.80;;;;;;;0.15;100.00;100220.66;4932952;29;20223;-74
2020/12/09 00:15:07;;;;;;;63.77;26.90;;;;;;;0.16;100.00;100219.84;4932821;28;20199;-74
2020/12/09 00:17:33;;;;;;;62.60;27.93;;;;;;;0.18;100.00;100215.56;4956680;28;20195;-74
2020/12/09 00:19:59;;;;;;;59.90;27.27;;;;;;;0.20;100.00;100219.88;4933927;29;20231;-73
2020/12/09 00:22:24;;;;;;;68.50;29.37;;;;;;;0.20;100.00;100222.44;4934286;29;20256;-73
2020/12/09 00:24:51;;;;;;;61.37;26.43;;;;;;;0.23;100.00;100220.75;4932823;29;20199;-73
2020/12/09 00:27:16;;;;;;;64.33;29.57;;;;;;;0.23;100.00;100213.06;4935513;29;20554;-73
2020/12/09 00:29:42;;;;;;;62.97;26.73;;;;;;;0.24;100.00;100213.91;4934007;29;20226;-74
2020/12/09 00:32:09;;;;;;;65.13;25.93;;;;;;;0.25;100.00;100218.22;4936342;29;20232;-73
2020/12/09 00:34:35;;;;;;;61.33;26.97;;;;;;;0.28;100.00;100218.22;4952397;28;20215;-73
2020/12/09 00:37:01;;;;;;;59.27;27.03;;;;;;;0.31;100.00;100211.41;4939174;29;20197;-73
2020/12/09 00:39:26;;;;;;;62.23;26.93;;;;;;;0.30;100.00;100216.53;4935924;28;20212;-74
2020/12/09 00:41:52;;;;;;;61.70;27.07;;;;;;;0.32;100.00;100215.72;4933567;29;20727;-73
2020/12/09 00:44:18;;;;;;;58.30;27.57;;;;;;;0.31;100.00;100208.00;4937010;29;20258;-75
2020/12/09 00:46:44;;;;;;;59.10;26.87;;;;;;;0.30;100.00;100209.72;4934634;29;20195;-74
2020/12/09 00:49:11;;;;;;;60.20;26.30;;;;;;;0.30;100.00;100211.41;4949869;28;20248;-74
2020/12/09 00:51:38;;;;;;;62.53;26.47;;;;;;;0.30;100.00;100219.09;4936103;29;20629;-73
2020/12/09 00:54:05;;;;;;;64.77;26.57;;;;;;;0.32;100.00;100220.84;4940073;28;20313;-73
2020/12/09 00:56:32;;;;;;;61.60;26.73;;;;;;;0.33;100.00;100216.56;4934007;28;20236;-74
2020/12/09 00:59:08;;;;;;;58.37;27.37;;;;;;;0.34;100.00;100226.00;4937501;29;20220;-74
2020/12/09 01:01:36;;;;;;;64.87;27.47;;;;;;;0.33;100.00;100225.09;4934608;28;20200;-74
2020/12/09 01:04:06;;;;;;;63.67;26.60;;;;;;;0.34;100.00;100223.41;4933361;29;20228;-73
2020/12/09 01:06:34;;;;;;;62.37;27.03;;;;;;;0.35;100.00;100217.44;4936811;29;20570;-74
2020/12/09 01:09:04;;;;;;;60.80;26.47;;;;;;;0.35;100.00;100223.44;4949720;28;20203;-74
2020/12/09 01:11:30;;;;;;;64.10;26.30;;;;;;;0.36;100.00;100216.59;4937046;29;20197;-75
2020/12/09 01:13:55;;;;;;;61.07;26.73;;;;;;;0.37;100.00;100211.47;4932463;29;20252;-74
2020/12/09 01:16:21;;;;;;;65.20;27.93;;;;;;;0.38;100.00;100207.19;4934994;29;20240;-74
2020/12/09 01:18:48;;;;;;;54.90;27.40;;;;;;;0.38;100.00;100204.63;4934505;29;20270;-74
2020/12/09 01:21:14;;;;;;;55.70;26.10;;;;;;;0.36;100.00;100212.31;4935566;29;20229;-74
2020/12/09 01:23:40;;;;;;;58.67;26.07;;;;;;;0.37;100.00;100210.63;4938156;29;20626;-75
2020/12/09 01:26:09;;;;;;;65.97;27.77;;;;;;;0.37;100.00;100210.63;4932914;29;20572;-74
2020/12/09 01:28:35;;;;;;;63.73;26.47;;;;;;;0.38;100.00;100214.91;4940199;28;20573;-73
2020/12/09 01:31:01;;;;;;;58.70;26.20;;;;;;;0.40;100.00;100217.47;4939703;28;20202;-73
2020/12/09 01:33:27;;;;;;;62.57;26.47;;;;;;;0.39;100.00;100216.63;4931202;29;20223;-73
2020/12/09 01:35:52;;;;;;;65.30;26.57;;;;;;;0.39;100.00;100219.19;4935571;29;20249;-74
2020/12/09 01:38:18;;;;;;;59.47;25.50;;;;;;;0.36;100.00;100216.59;4933760;29;20203;-74
2020/12/09 01:40:45;;;;;;;62.33;27.83;;;;;;;0.38;100.00;100225.16;4952297;28;20218;-74
2020/12/09 01:43:11;;;;;;;63.10;26.73;;;;;;;0.40;100.00;100214.91;4931309;28;20220;-74
2020/12/09 01:45:37;;;;;;;61.87;26.43;;;;;;;0.37;100.00;100196.09;4932107;29;20214;-74
2020/12/09 01:48:07;;;;;;;59.33;26.43;;;;;;;0.37;100.00;100198.66;4932202;29;20215;-74
2020/12/09 01:50:33;;;;;;;62.43;26.73;;;;;;;0.37;100.00;100196.09;4935494;29;20207;-73
2020/12/09 01:52:59;;;;;;;56.33;26.43;;;;;;;0.38;100.00;100196.94;4935170;28;20892;-73
2020/12/09 01:55:25;;;;;;;61.03;26.90;;;;;;;0.40;100.00;100209.78;4933908;29;20211;-74
2020/12/09 01:57:52;;;;;;;60.47;26.50;;;;;;;0.42;100.00;100213.22;4935162;29;20242;-74
2020/12/09 02:00:18;;;;;;;61.00;26.70;;;;;;;0.41;100.00;100209.81;4931930;29;20223;-75
2020/12/09 02:02:44;;;;;;;54.80;25.70;;;;;;;0.43;100.00;100220.94;4946987;28;20634;-74
2020/12/09 02:05:12;;;;;;;59.37;26.10;;;;;;;0.43;100.00;100218.38;4932811;29;20285;-74
2020/12/09 02:07:38;;;;;;;61.13;27.83;;;;;;;0.46;100.00;100209.81;4936462;29;20261;-74
2020/12/09 02:10:06;;;;;;;54.23;25.33;;;;;;;0.48;100.00;100208.16;4932561;29;20282;-75
2020/12/09 02:12:33;;;;;;;59.47;26.83;;;;;;;0.47;100.00;100211.56;4934409;29;20220;-74
2020/12/09 02:15:00;;;;;;;62.17;27.30;;;;;;;0.48;100.00;100229.53;4931898;29;20208;-73
2020/12/09 02:17:27;;;;;;;55.77;27.03;;;;;;;0.49;100.00;100228.69;4936279;29;20214;-73
2020/12/09 02:19:52;;;;;;;60.03;26.50;;;;;;;0.50;100.00;100227.84;4932153;29;20206;-74
2020/12/09 02:22:19;;;;;;;58.17;26.97;;;;;;;0.50;100.00;100217.56;4931328;29;20627;-74
2020/12/09 02:24:45;;;;;;;62.43;27.30;;;;;;;0.51;100.00;100223.56;4926771;29;20226;-74
2020/12/09 02:27:11;;;;;;;61.97;26.27;;;;;;;0.50;100.00;100216.72;4935063;29;20631;-74
2020/12/09 02:29:37;;;;;;;59.27;26.37;;;;;;;0.50;100.00;100219.28;4928785;29;20289;-74
2020/12/09 02:32:03;;;;;;;54.80;25.87;;;;;;;0.48;100.00;100219.25;4931769;29;20258;-73
2020/12/09 02:34:29;;;;;;;58.13;26.60;;;;;;;0.49;100.00;100212.41;4943667;28;20220;-74
2020/12/09 02:36:55;;;;;;;65.70;27.07;;;;;;;0.51;100.00;100213.28;4939984;29;20203;-75
2020/12/09 02:39:31;;;;;;;61.87;26.47;;;;;;;0.48;100.00;100211.56;4932365;28;20241;-74
2020/12/09 02:41:57;;;;;;;59.03;26.37;;;;;;;0.45;100.00;100223.50;4935410;29;20221;-74
2020/12/09 02:44:23;;;;;;;58.77;26.63;;;;;;;0.45;100.00;100205.56;4930194;29;20235;-73
2020/12/09 02:46:49;;;;;;;63.17;27.83;;;;;;;0.45;100.00;100208.13;4938997;29;20213;-74
2020/12/09 02:49:15;;;;;;;61.70;28.73;;;;;;;0.44;100.00;100207.28;4929436;29;20262;-73
2020/12/09 02:51:40;;;;;;;56.53;25.73;;;;;;;0.42;100.00;100206.38;4929962;29;20199;-74
2020/12/09 02:54:06;;;;;;;66.17;28.23;;;;;;;0.40;100.00;100205.50;4928425;29;20208;-74
2020/12/09 02:56:33;;;;;;;62.47;29.03;;;;;;;0.39;100.00;100219.19;4933183;29;20198;-74
2020/12/09 02:58:59;;;;;;;62.73;28.80;;;;;;;0.37;100.00;100220.88;4927811;29;20206;-74
2020/12/09 03:01:25;;;;;;;62.13;26.87;;;;;;;0.40;100.00;100222.59;4939145;28;20274;-73
2020/12/09 03:03:50;;;;;;;67.17;28.50;;;;;;;0.33;100.00;100217.41;4930030;29;20302;-73
2020/12/09 03:06:16;;;;;;;59.10;28.43;;;;;;;0.32;100.00;100223.41;4933209;29;20214;-73
2020/12/09 03:08:43;;;;;;;64.70;28.60;;;;;;;0.32;100.00;100225.13;4931621;29;20297;-74
2020/12/09 03:11:09;;;;;;;65.70;27.93;;;;;;;0.30;100.00;100211.41;4935832;29;20264;-73
2020/12/09 03:13:36;;;;;;;60.73;27.67;;;;;;;0.27;100.00;100217.38;4934335;28;20224;-73
2020/12/09 03:16:02;;;;;;;58.23;28.00;;;;;;;0.28;100.00;100228.47;4936898;29;20208;-74
2020/12/09 03:18:28;;;;;;;61.00;28.63;;;;;;;0.26;100.00;100217.34;4935930;28;20206;-74
2020/12/09 03:20:53;;;;;;;64.73;28.97;;;;;;;0.24;100.00;100219.03;4932844;29;20582;-73
2020/12/09 03:23:19;;;;;;;61.90;27.37;;;;;;;0.24;100.00;100231.88;4927747;29;20241;-74
2020/12/09 03:25:45;;;;;;;65.00;27.73;;;;;;;0.22;100.00;100226.72;4944348;29;20211;-73
2020/12/09 03:28:11;;;;;;;59.07;27.77;;;;;;;0.18;100.00;100230.97;4937451;28;20203;-73
2020/12/09 03:30:38;;;;;;;66.73;28.80;;;;;;;0.20;100.00;100225.00;4948609;28;20274;-73
2020/12/09 03:33:03;;;;;;;65.40;28.80;;;;;;;0.20;99.97;100219.88;4933227;28;20586;-73
2020/12/09 03:35:29;;;;;;;56.80;27.17;;;;;;;0.20;99.90;100219.88;4934761;29;20237;-73
2020/12/09 03:37:55;;;;;;;66.57;29.47;;;;;;;0.19;100.00;100219.00;4943485;28;20694;-74
2020/12/09 03:40:21;;;;;;;69.67;29.43;;;;;;;0.18;100.00;100220.72;4932395;29;20202;-74
2020/12/09 03:42:47;;;;;;;69.30;29.13;;;;;;;0.21;100.00;100219.00;4930031;29;20288;-74
2020/12/09 03:45:13;;;;;;;71.27;30.83;;;;;;;0.21;100.00;100214.72;4934293;28;20208;-73
2020/12/09 03:47:39;;;;;;;62.33;27.60;;;;;;;0.18;99.83;100215.56;4933786;29;20270;-73
2020/12/09 03:50:08;;;;;;;69.30;29.07;;;;;;;0.17;99.78;100226.66;4933373;28;20208;-74
2020/12/09 03:52:33;;;;;;;59.23;27.60;;;;;;;0.20;99.89;100225.00;4931299;29;20215;-73
2020/12/09 03:54:59;;;;;;;66.07;28.30;;;;;;;0.20;99.54;100212.19;4929791;29;20675;-73
2020/12/09 03:57:25;;;;;;;67.63;29.13;;;;;;;0.18;99.56;100215.56;4935763;29;20209;-73
2020/12/09 03:59:51;;;;;;;65.50;28.70;;;;;;;0.20;99.59;100235.25;4941258;28;20747;-73
2020/12/09 04:02:17;;;;;;;68.90;28.07;;;;;;;0.20;99.46;100227.56;4934899;29;20889;-75
2020/12/09 04:04:43;;;;;;;67.80;28.93;;;;;;;0.20;99.25;100225.00;4934523;29;20314;-74
2020/12/09 04:07:09;;;;;;;61.93;28.53;;;;;;;0.17;99.53;100228.38;4949040;28;20205;-74
2020/12/09 04:09:35;;;;;;;60.63;28.53;;;;;;;0.18;99.38;100230.13;4936735;29;20200;-73
2020/12/09 04:12:01;;;;;;;66.77;27.80;;;;;;;0.17;99.25;100234.34;4933976;28;20226;-73
2020/12/09 04:14:28;;;;;;;60.43;28.63;;;;;;;0.15;99.44;100230.06;4930561;29;20624;-74
2020/12/09 04:16:54;;;;;;;60.83;27.90;;;;;;;0.15;99.16;100240.31;4937333;29;20208;-73
2020/12/09 04:19:20;;;;;;;60.73;28.10;;;;;;;0.17;98.91;100236.06;4949373;28;20203;-73
2020/12/09 04:21:47;;;;;;;55.87;28.67;;;;;;;0.17;99.05;100226.66;4943392;29;20263;-73
2020/12/09 04:24:13;;;;;;;59.97;28.00;;;;;;;0.14;98.83;100230.91;4949144;28;20715;-73
2020/12/09 04:26:39;;;;;;;59.07;26.73;;;;;;;0.15;99.01;100224.94;4934881;29;20204;-74
2020/12/09 04:29:04;;;;;;;61.23;28.63;;;;;;;0.14;98.92;100225.78;4935991;29;20282;-74
2020/12/09 04:31:30;;;;;;;53.70;26.70;;;;;;;0.12;99.16;100228.34;4935267;28;20199;-74
2020/12/09 04:34:00;;;;;;;66.47;28.23;;;;;;;0.11;98.85;100229.19;4939725;29;20222;-74
2020/12/09 04:36:27;;;;;;;68.20;28.07;;;;;;;0.11;98.86;100223.22;4936497;29;20658;-73
2020/12/09 04:38:54;;;;;;;60.63;27.23;;;;;;;0.11;98.92;100231.75;4932662;29;20213;-74
2020/12/09 04:41:20;;;;;;;61.63;28.87;;;;;;;0.11;99.15;100233.47;4937975;29;20209;-73
2020/12/09 04:43:46;;;;;;;60.27;28.60;;;;;;;0.11;98.98;100241.16;4934390;29;20213;-73
2020/12/09 04:46:12;;;;;;;60.37;28.20;;;;;;;0.11;98.99;100241.16;4937835;29;20565;-73
2020/12/09 04:48:40;;;;;;;59.10;27.10;;;;;;;0.12;99.05;100253.09;4933626;29;20218;-73
2020/12/09 04:51:42;;;;;;;65.23;27.37;;;;;;;0.09;99.02;100250.50;4939872;29;20680;-73
2020/12/09 04:54:14;;;;;;;61.17;26.07;;;;;;;0.10;98.87;100249.66;4938406;29;20224;-73
2020/12/09 04:56:53;;;;;;;60.57;27.13;;;;;;;0.13;99.08;100248.00;4940810;28;20679;-73
2020/12/09 04:59:23;;;;;;;60.50;27.50;;;;;;;0.12;98.91;100247.97;4936255;29;20282;-73
2020/12/09 05:02:02;;;;;;;60.67;27.17;;;;;;;0.12;99.00;100241.16;4938884;28;20255;-73
2020/12/09 05:04:30;;;;;;;63.17;28.50;;;;;;;0.13;98.89;100232.63;4934011;29;20219;-74
2020/12/09 05:06:56;;;;;;;60.10;27.57;;;;;;;0.11;99.04;100239.44;4928303;29;20199;-74
2020/12/09 05:09:27;;;;;;;62.57;28.50;;;;;;;0.09;99.13;100235.13;4932766;29;20307;-74
2020/12/09 05:12:00;;;;;;;62.77;28.03;;;;;;;0.07;98.90;100241.94;4933159;29;20205;-73
2020/12/09 05:14:29;;;;;;;60.47;26.73;;;;;;;0.10;98.88;100250.53;4936506;28;20588;-73
2020/12/09 05:16:58;;;;;;;59.83;28.57;;;;;;;0.07;98.85;100241.94;4932772;29;20203;-74
2020/12/09 05:19:24;;;;;;;63.80;28.97;;;;;;;0.04;98.76;100237.66;4938610;29;20202;-75
2020/12/09 05:21:51;;;;;;;67.53;29.67;;;;;;;0.05;98.64;100236.78;4936161;28;20226;-75
2020/12/09 05:24:18;;;;;;;56.13;27.07;;;;;;;0.04;98.71;100247.91;4935818;28;20224;-73
2020/12/09 05:26:45;;;;;;;58.53;26.97;;;;;;;0.05;98.85;100251.31;4939387;28;20215;-73
2020/12/09 05:29:13;;;;;;;52.20;26.20;;;;;;;0.04;98.64;100253.03;4946998;28;20207;-73
2020/12/09 05:31:41;;;;;;;56.23;27.17;;;;;;;0.06;98.71;100243.66;4933679;29;20212;-73
2020/12/09 05:34:28;;;;;;;58.50;27.00;;;;;;;0.07;98.82;100250.50;4934666;29;20216;-73
2020/12/09 05:36:55;;;;;;;60.67;27.73;;;;;;;0.04;98.69;100265.00;4944486;29;20228;-73
2020/12/09 05:39:22;;;;;;;60.63;28.40;;;;;;;0.06;98.88;100260.75;4931250;29;20540;-74
2020/12/09 05:41:48;;;;;;;62.17;27.93;;;;;;;0.05;98.70;100267.56;4933162;29;20205;-73
2020/12/09 05:44:14;;;;;;;60.73;27.87;;;;;;;0.04;98.76;100265.84;4943648;28;20704;-73
2020/12/09 05:46:58;;;;;;;67.00;27.33;;;;;;;0.06;98.96;100260.75;4931223;29;20221;-74
2020/12/09 05:49:26;;;;;;;56.20;26.57;;;;;;;0.03;99.04;100261.56;4936684;29;20572;-74
2020/12/09 05:52:06;;;;;;;60.60;27.17;;;;;;;0.02;98.82;100269.22;4933727;28;20204;-74
2020/12/09 05:54:32;;;;;;;58.70;26.17;;;;;;;0.03;99.08;100269.25;4932906;29;20195;-73
2020/12/09 05:57:02;;;;;;;59.93;26.97;;;;;;;0.06;98.97;100273.56;4934585;29;20207;-74
2020/12/09 05:59:33;;;;;;;56.27;26.77;;;;;;;0.07;99.12;100278.72;4934287;29;20599;-73
2020/12/09 06:02:07;;;;;;;60.77;26.37;;;;;;;0.07;98.96;100278.72;4935953;28;20212;-74
2020/12/09 06:04:43;;;;;;;56.20;25.47;;;;;;;0.08;99.13;100280.41;4935635;29;20216;-73
2020/12/09 06:07:10;;;;;;;55.50;26.40;;;;;;;0.07;99.14;100291.53;4931843;29;20205;-73
2020/12/09 06:09:37;;;;;;;60.63;28.10;;;;;;;0.10;98.88;100283.84;4934882;29;20200;-73
2020/12/09 06:12:04;;;;;;;62.90;27.13;;;;;;;0.08;98.98;100295.78;4932613;29;20204;-74
2020/12/09 06:14:30;;;;;;;53.80;27.27;;;;;;;0.09;99.18;100292.41;4943037;29;20183;-73
2020/12/09 06:16:56;;;;;;;63.83;28.77;;;;;;;0.07;98.89;100294.09;4933731;28;20203;-75
2020/12/09 06:19:23;;;;;;;61.87;27.40;;;;;;;0.09;98.82;100294.97;4941288;28;20199;-74
2020/12/09 06:21:54;;;;;;;55.40;25.43;;;;;;;0.08;99.05;100300.06;4934656;29;20216;-73
2020/12/09 06:24:20;;;;;;;58.60;26.43;;;;;;;0.10;99.16;100301.81;4931810;28;20219;-73
2020/12/09 06:26:48;;;;;;;61.93;26.87;;;;;;;0.11;99.15;100306.09;4934080;29;20377;-73
2020/12/09 06:29:21;;;;;;;62.17;27.53;;;;;;;0.14;99.00;100318.06;4930274;29;20224;-73
2020/12/09 06:32:01;;;;;;;58.07;27.67;;;;;;;0.12;98.93;100318.09;4931690;29;20212;-73
2020/12/09 06:34:27;;;;;;;60.27;27.63;;;;;;;0.12;98.87;100320.66;4939552;28;20210;-74
2020/12/09 06:37:12;;;;;;;57.73;25.07;;;;;;;0.14;98.89;100318.06;4932206;28;20201;-74
2020/12/09 06:39:39;;;;;;;60.10;25.67;;;;;;;0.12;98.93;100307.84;4931370;29;20208;-73
2020/12/09 06:42:09;;;;;;;57.97;26.37;;;;;;;0.13;98.87;100317.22;4929303;29;20889;-74
2020/12/09 06:44:50;;;;;;;55.60;26.23;;;;;;;0.11;98.88;100313.78;4936088;29;20258;-74
2020/12/09 06:47:16;;;;;;;53.83;26.03;;;;;;;0.13;98.99;100312.09;4929282;29;20207;-73
2020/12/09 06:49:43;;;;;;;58.87;25.63;;;;;;;0.13;98.63;100313.81;4934289;29;20195;-73
2020/12/09 06:52:32;;;;;;;65.07;26.70;;;;;;;0.16;98.77;100314.72;4933511;29;20270;-74
2020/12/09 06:54:59;;;;;;;63.20;27.30;;;;;;;0.15;98.63;100312.97;4930543;29;20199;-73
2020/12/09 06:57:33;;;;;;;58.90;26.23;;;;;;;0.16;98.72;100306.16;4931737;29;20207;-73
2020/12/09 07:00:15;;;;;;;65.27;27.00;;;;;;;0.17;98.41;100313.84;4933005;29;20214;-73
2020/12/09 07:02:42;;;;;;;67.70;26.97;;;;;;;0.17;98.52;100310.44;4945541;28;20236;-73
2020/12/09 07:05:09;;;;;;;55.70;25.07;;;;;;;0.15;98.49;100317.25;4939106;29;20239;-73
2020/12/09 07:07:37;;;;;;;58.97;26.30;;;;;;;0.15;98.60;100317.25;4932585;29;20208;-74
2020/12/09 07:10:09;;;;;;;63.93;26.37;;;;;;;0.14;98.51;100318.97;4942910;29;20219;-73
2020/12/09 07:12:35;;;;;;;59.70;26.43;;;;;;;0.16;98.49;100318.97;4929774;29;20253;-73
2020/12/09 07:15:01;;;;;;;56.90;26.23;;;;;;;0.16;98.51;100329.25;4933021;29;20208;-73
2020/12/09 07:17:28;;;;;;;60.23;26.70;;;;;;;0.15;98.50;100324.94;4933516;29;20210;-73
2020/12/09 07:19:56;;;;;;;60.03;27.17;;;;;;;0.13;98.68;100324.91;4935122;29;20213;-74
2020/12/09 07:22:22;;;;;;;66.13;28.17;;;;;;;0.14;98.70;100330.91;4944593;28;20620;-73
2020/12/09 07:24:48;;;;;;;62.93;26.20;;;;;;;0.14;98.48;100326.66;4935044;28;20214;-73
2020/12/09 07:27:14;;;;;;;61.80;27.67;;;;;;;0.15;98.44;100330.91;4934494;28;20704;-73
2020/12/09 07:29:41;;;;;;;60.40;27.90;;;;;;;0.13;98.50;100335.19;4953572;28;20203;-73
2020/12/09 07:32:08;;;;;;;64.20;26.93;;;;;;;0.14;98.63;100338.59;4932543;28;20200;-74
2020/12/09 07:34:35;;;;;;;65.83;30.07;;;;;;;0.14;98.72;100342.03;4934411;29;20217;-73
2020/12/09 07:37:01;;;;;;;66.80;30.17;;;;;;;0.16;98.43;100340.34;4935241;29;20208;-73
2020/12/09 07:39:32;;;;;;;68.57;29.13;;;;;;;0.17;98.49;100346.31;4935735;28;20232;-73
2020/12/09 07:41:59;;;;;;;63.93;29.53;;;;;;;0.18;98.60;100345.50;4932260;29;20207;-74
2020/12/09 07:44:26;;;;;;;60.53;25.93;;;;;;;0.16;98.49;100344.63;4934215;28;20681;-74
2020/12/09 07:46:53;;;;;;;65.50;28.83;;;;;;;0.16;98.45;100342.06;4937951;29;20204;-73
2020/12/09 07:49:19;;;;;;;56.60;26.97;;;;;;;0.17;98.38;100356.59;4932526;29;20208;-73
2020/12/09 07:51:46;;;;;;;60.60;29.00;;;;;;;0.18;98.48;100364.28;4934576;29;20204;-73
2020/12/09 07:54:13;;;;;;;60.50;28.20;;;;;;;0.16;98.52;100360.84;4936498;29;20246;-74
2020/12/09 07:56:39;;;;;;;57.37;26.20;;;;;;;0.22;98.23;100364.34;4934878;29;20220;-73
2020/12/09 07:59:05;;;;;;;59.87;26.73;;;;;;;0.19;98.44;100365.16;4937800;29;20197;-73
2020/12/09 08:01:31;;;;;;;65.53;27.50;;;;;;;0.23;98.38;100369.50;4933963;29;20203;-74
2020/12/09 08:03:57;;;;;;;64.40;27.80;;;;;;;0.22;98.30;100362.63;4946436;28;20636;-73
2020/12/09 08:06:23;;;;;;;65.03;28.57;;;;;;;0.20;98.15;100354.06;4936514;29;20554;-73
2020/12/09 08:08:50;;;;;;;63.37;26.87;;;;;;;0.19;98.17;100365.16;4938420;29;20285;-74
2020/12/09 08:11:16;;;;;;;63.40;26.43;;;;;;;0.18;97.99;100351.47;4936096;29;20196;-74
2020/12/09 08:13:42;;;;;;;60.03;27.57;;;;;;;0.22;98.15;100347.25;4936172;29;20263;-74
2020/12/09 08:16:11;;;;;;;64.97;27.20;;;;;;;0.24;98.17;100349.81;4937150;29;20247;-74
2020/12/09 08:18:38;;;;;;;64.73;28.17;;;;;;;0.24;98.11;100354.97;4928579;29;20227;-74
2020/12/09 08:21:04;;;;;;;62.93;27.47;;;;;;;0.26;98.17;100361.81;4938956;28;20195;-73
2020/12/09 08:23:41;;;;;;;63.07;27.57;;;;;;;0.28;98.00;100367.84;4938393;29;20216;-73
2020/12/09 08:26:08;;;;;;;59.03;25.60;;;;;;;0.31;98.17;100362.72;4940483;29;20547;-73
2020/12/09 08:28:35;;;;;;;63.13;26.07;;;;;;;0.35;98.00;100367.06;4937415;29;20240;-75
2020/12/09 08:31:13;;;;;;;66.63;28.00;;;;;;;0.36;98.04;100367.91;4934419;29;20196;-74
2020/12/09 08:33:39;;;;;;;60.27;26.57;;;;;;;0.37;97.80;100360.25;4932652;29;20218;-72
2020/12/09 08:36:08;;;;;;;63.03;27.63;;;;;;;0.38;97.79;100364.50;4939669;29;20674;-73
2020/12/09 08:38:38;;;;;;;62.07;27.43;;;;;;;0.41;97.48;100361.13;4934986;29;20201;-74
2020/12/09 08:41:06;;;;;;;61.33;26.67;;;;;;;0.42;97.79;100367.97;4933974;29;20215;-74
2020/12/09 08:43:35;;;;;;;59.70;26.07;;;;;;;0.44;97.44;100363.75;4934859;29;20225;-74
2020/12/09 08:46:02;;;;;;;57.77;26.60;;;;;;;0.49;97.43;100367.22;4935035;29;20199;-74
2020/12/09 08:48:28;;;;;;;71.87;27.97;;;;;;;0.49;97.39;100367.22;4938209;29;20217;-74
2020/12/09 08:50:54;;;;;;;59.33;26.47;;;;;;;0.50;97.21;100373.22;4937469;29;20270;-74
2020/12/09 08:53:20;;;;;;;61.80;27.10;;;;;;;0.49;97.21;100368.91;4933899;29;20212;-74
2020/12/09 08:55:47;;;;;;;65.60;28.70;;;;;;;0.48;96.94;100380.03;4951809;28;21011;-74
2020/12/09 08:58:14;;;;;;;56.63;27.27;;;;;;;0.49;97.29;100374.94;4935088;29;20240;-74
2020/12/09 09:00:41;;;;;;;62.07;27.67;;;;;;;0.48;97.06;100374.91;4937631;29;20205;-74
2020/12/09 09:03:10;;;;;;;63.97;27.20;;;;;;;0.50;97.30;100383.47;4933515;28;20312;-74
2020/12/09 09:05:36;;;;;;;68.00;28.07;;;;;;;0.52;97.23;100377.50;4946837;28;20558;-74
2020/12/09 09:08:02;;;;;;;56.30;25.40;;;;;;;0.54;96.91;100380.09;4950468;28;20300;-73
2020/12/09 09:10:28;;;;;;;58.50;25.90;;;;;;;0.59;97.00;100390.41;4933075;29;20283;-74
2020/12/09 09:12:54;;;;;;;64.57;26.57;;;;;;;0.58;96.84;100389.53;4936982;29;20227;-74
2020/12/09 09:15:20;;;;;;;56.23;26.50;;;;;;;0.60;96.80;100386.97;4931797;29;20204;-74
2020/12/09 09:17:46;;;;;;;66.03;27.77;;;;;;;0.62;96.51;100395.59;4935573;29;20204;-74
2020/12/09 09:20:12;;;;;;;62.37;27.47;;;;;;;0.60;96.60;100389.53;4932507;28;20299;-75
2020/12/09 09:22:38;;;;;;;69.17;28.83;;;;;;;0.61;96.62;100389.56;4933072;29;20229;-74
2020/12/09 09:25:05;;;;;;;70.90;28.50;;;;;;;0.66;96.61;100389.63;4933829;29;20221;-74
2020/12/09 09:27:31;;;;;;;61.43;27.70;;;;;;;0.67;96.49;100384.50;4931405;29;20292;-74
2020/12/09 09:29:58;;;;;;;60.77;27.30;;;;;;;0.68;96.40;100388.78;4933133;29;20662;-74
2020/12/09 09:32:25;;;;;;;67.23;28.87;;;;;;;0.68;96.21;100386.22;4948808;28;20635;-73
2020/12/09 09:34:53;;;;;;;60.53;26.20;;;;;;;0.73;96.50;100388.84;4935093;29;20204;-73
2020/12/09 09:37:21;;;;;;;67.37;28.50;;;;;;;0.77;95.94;100389.72;4951736;28;20214;-73
2020/12/09 09:39:47;;;;;;;67.67;27.67;;;;;;;0.81;96.06;100394.94;4933683;29;20205;-73
2020/12/09 09:42:13;;;;;;;61.87;27.73;;;;;;;0.85;95.58;100398.38;4933634;29;20281;-73
2020/12/09 09:44:39;;;;;;;61.37;26.57;;;;;;;0.88;95.30;100403.53;4939611;29;20767;-74
2020/12/09 09:47:05;;;;;;;69.80;29.90;;;;;;;0.89;95.13;100400.97;4932225;28;20213;-73
2020/12/09 09:49:31;;;;;;;62.37;27.53;;;;;;;0.92;95.39;100403.59;4928865;29;20283;-74
2020/12/09 09:51:57;;;;;;;63.37;28.37;;;;;;;0.91;95.17;100406.13;4932728;29;20614;-73
2020/12/09 09:54:23;;;;;;;67.53;27.87;;;;;;;0.94;95.12;100404.44;4945557;28;20212;-73
2020/12/09 09:56:49;;;;;;;64.43;29.07;;;;;;;0.97;94.86;100411.34;4932647;29;20619;-73
2020/12/09 09:59:16;;;;;;;66.93;28.27;;;;;;;1.02;95.20;100401.09;4932947;29;20305;-74
2020/12/09 10:01:42;;;;;;;57.93;26.83;;;;;;;1.03;94.97;100395.97;4933589;29;20289;-74
2020/12/09 10:04:08;;;;;;;65.40;28.73;;;;;;;1.01;94.75;100402.81;4935675;29;20222;-74
2020/12/09 10:06:34;;;;;;;67.40;28.87;;;;;;;1.00;94.54;100407.91;4933030;29;20240;-74
2020/12/09 10:09:01;;;;;;;66.87;28.03;;;;;;;0.99;94.32;100404.50;4932823;29;20196;-74
2020/12/09 10:11:27;;;;;;;60.47;27.10;;;;;;;0.96;94.25;100396.78;4932293;29;20228;-74
2020/12/09 10:13:53;;;;;;;66.20;28.13;;;;;;;0.98;94.27;100415.59;4930735;29;20864;-73
2020/12/09 10:16:24;;;;;;;64.33;28.23;;;;;;;0.95;94.60;100400.19;4932573;29;20767;-74
2020/12/09 10:18:50;;;;;;;63.13;29.33;;;;;;;0.98;94.36;100401.91;4929961;29;20215;-74
2020/12/09 10:21:22;;;;;;;66.97;27.47;;;;;;;0.96;94.28;100401.91;4935351;29;20680;-73
2020/12/09 10:23:47;;;;;;;68.20;29.30;;;;;;;1.00;94.47;100403.63;4930578;29;20231;-73
2020/12/09 10:26:15;;;;;;;62.43;27.47;;;;;;;1.00;94.06;100401.06;4933408;29;20195;-73
2020/12/09 10:28:41;;;;;;;63.07;27.37;;;;;;;1.01;94.46;100399.38;4931293;29;20226;-73
2020/12/09 10:31:07;;;;;;;63.53;27.77;;;;;;;1.03;94.34;100395.97;4929223;29;20196;-73
2020/12/09 10:33:33;;;;;;;65.17;27.93;;;;;;;1.05;93.98;100396.84;4928197;28;20254;-74
2020/12/09 10:35:58;;;;;;;61.83;28.67;;;;;;;1.13;94.23;100397.78;4947061;28;20269;-74
2020/12/09 10:38:24;;;;;;;61.80;28.87;;;;;;;1.13;93.96;100391.78;4931551;28;20203;-73
2020/12/09 10:40:50;;;;;;;64.87;27.97;;;;;;;1.19;94.29;100378.13;4930782;29;20554;-73
2020/12/09 10:43:17;;;;;;;61.57;27.43;;;;;;;1.22;93.82;100381.59;4934826;28;20282;-73
2020/12/09 10:45:43;;;;;;;65.37;27.93;;;;;;;1.27;93.95;100382.50;4933126;29;20225;-73
2020/12/09 10:48:08;;;;;;;62.27;27.47;;;;;;;1.28;93.26;100391.03;4927912;29;20218;-73
2020/12/09 10:50:34;;;;;;;68.13;28.37;;;;;;;1.27;93.52;100390.19;4933825;29;20203;-73
2020/12/09 10:53:02;;;;;;;60.23;27.40;;;;;;;1.30;93.23;100390.22;4929433;29;20227;-74
2020/12/09 10:55:28;;;;;;;57.90;27.93;;;;;;;1.32;93.21;100388.53;4933630;28;20207;-74
2020/12/09 10:57:54;;;;;;;61.17;26.97;;;;;;;1.33;93.06;100379.09;4933306;29;20199;-74
2020/12/09 11:00:20;;;;;;;62.40;27.40;;;;;;;1.36;93.14;100396.28;4926694;28;20202;-74
2020/12/09 11:02:46;;;;;;;61.90;26.70;;;;;;;1.35;93.15;100394.53;4931666;29;20227;-74
2020/12/09 11:05:12;;;;;;;59.13;26.33;;;;;;;1.38;92.72;100380.00;4932236;29;20211;-74
2020/12/09 11:07:38;;;;;;;61.83;25.87;;;;;;;1.38;92.55;100385.13;4942128;29;20261;-74
2020/12/09 11:10:04;;;;;;;60.53;26.57;;;;;;;1.43;92.66;100390.31;4930950;29;20202;-73
2020/12/09 11:12:30;;;;;;;54.00;25.23;;;;;;;1.44;92.70;100390.34;4932280;29;20242;-75
2020/12/09 11:14:55;;;;;;;59.10;27.03;;;;;;;1.51;92.96;100388.66;4928878;29;20206;-73